Time;durP1;ratioP1;P1;durP2;ratioP2;P2;SDS_P1;SDS_P2;PMS_P1;PMS_P2;Temp;Humidity;BMP_temperature;BMP_pressure;BME280_temperature;BME280_humidity;BME280_pressure;Samples;Min_cycle;Max_cycle;Signal;HPM_P1;HPM_P2
2022/07/30 00:00:22;;;;;;;;;;;;;;;;;;10500247;28;19932;-66
2022/07/30 00:05:26;;;;;;;;;;;;;;;;;;10500043;28;19968;-66
2022/07/30 00:10:28;;;;;;;;;;;;;;;;;;10499107;28;20368;-66
2022/07/30 00:15:30;;;;;;;;;;;;;;;;;;10498916;28;19932;-66
2022/07/30 00:20:32;;;;;;;;;;;;;;;;;;10499604;28;19930;-66
2022/07/30 00:25:34;;;;;;;;;;;;;;;;;;10499373;28;19925;-66
2022/07/30 00:30:37;;;;;;;;;;;;;;;;;;10498460;28;19931;-66
2022/07/30 00:35:39;;;;;;;;;;;;;;;;;;10457766;28;19933;-66
2022/07/30 00:40:42;;;;;;;;;;;;;;;;;;10457013;28;19925;-66
2022/07/30 00:45:44;;;;;;;;;;;;;;;;;;10481636;28;19963;-66
2022/07/30 00:50:46;;;;;;;;;;;;;;;;;;10498540;28;19947;-68
2022/07/30 00:55:48;;;;;;;;;;;;;;;;;;10498159;28;19928;-66
2022/07/30 01:00:50;;;;;;;;;;;;;;;;;;10498028;28;19929;-66
2022/07/30 01:05:52;;;;;;;;;;;;;;;;;;10498322;28;19967;-66
2022/07/30 01:10:55;;;;;;;;;;;;;;;;;;10479632;28;19931;-66
2022/07/30 01:15:57;;;;;;;;;;;;;;;;;;10497591;28;20283;-66
2022/07/30 01:20:59;;;;;;;;;;;;;;;;;;10498220;28;19924;-66
2022/07/30 01:26:01;;;;;;;;;;;;;;;;;;10498078;28;19925;-66
2022/07/30 01:31:03;;;;;;;;;;;;;;;;;;10497040;28;19930;-66
2022/07/30 01:36:05;;;;;;;;;;;;;;;;;;10497835;28;19931;-66
2022/07/30 01:41:07;;;;;;;;;;;;;;;;;;10497223;28;20284;-66
2022/07/30 01:46:09;;;;;;;;;;;;;;;;;;10497474;28;19924;-66
2022/07/30 01:51:11;;;;;;;;;;;;;;;;;;10496772;28;20386;-66
2022/07/30 01:56:14;;;;;;;;;;;;;;;;;;10501044;28;20458;-66
2022/07/30 02:01:17;;;;;;;;;;;;;;;;;;10504151;28;20366;-66
2022/07/30 02:06:20;;;;;;;;;;;;;;;;;;10504168;28;19930;-66
2022/07/30 02:16:43;;;;;;;;;;;;;;;;;;10503604;28;20391;-66
2022/07/30 02:21:45;;;;;;;;;;;;;;;;;;10503383;28;20299;-66
2022/07/30 02:26:51;;;;;;;;;;;;;;;;;;10504031;28;19925;-66
2022/07/30 02:31:53;;;;;;;;;;;;;;;;;;10502853;28;19928;-66
2022/07/30 02:36:55;;;;;;;;;;;;;;;;;;10503703;28;19930;-66
2022/07/30 02:41:58;;;;;;;;;;;;;;;;;;10503307;28;19931;-66
2022/07/30 02:47:00;;;;;;;;;;;;;;;;;;10510561;22;19924;-64
2022/07/30 02:52:07;;;;;;;;;;;;;;;;;;10502230;28;19985;-64
2022/07/30 02:57:09;;;;;;;;;;;;;;;;;;10502366;28;20279;-64
2022/07/30 03:02:11;;;;;;;;;;;;;;;;;;10502096;28;19951;-64
2022/07/30 03:07:15;;;;;;;;;;;;;;;;;;10501243;28;19932;-64
2022/07/30 03:12:17;;;;;;;;;;;;;;;;;;10501193;28;19925;-64
2022/07/30 03:17:19;;;;;;;;;;;;;;;;;;10501529;28;20351;-65
2022/07/30 03:22:21;;;;;;;;;;;;;;;;;;10501804;28;19935;-64
2022/07/30 03:27:23;;;;;;;;;;;;;;;;;;10500695;28;19925;-65
2022/07/30 03:32:25;;;;;;;;;;;;;;;;;;10501102;28;19924;-64
2022/07/30 03:37:27;;;;;;;;;;;;;;;;;;10501196;28;19931;-64
2022/07/30 03:42:30;;;;;;;;;;;;;;;;;;10500072;28;19925;-65
2022/07/30 03:47:32;;;;;;;;;;;;;;;;;;10499926;28;19929;-65
2022/07/30 03:52:34;;;;;;;;;;;;;;;;;;10500334;28;19931;-65
2022/07/30 03:57:36;;;;;;;;;;;;;;;;;;10500637;28;19932;-65
2022/07/30 04:02:38;;;;;;;;;;;;;;;;;;10499600;28;20282;-65
2022/07/30 04:07:40;;;;;;;;;;;;;;;;;;10499847;28;19924;-65
2022/07/30 04:12:46;;;;;;;;;;;;;;;;;;10499161;28;19964;-65
2022/07/30 04:17:48;;;;;;;;;;;;;;;;;;10498970;28;19932;-65
2022/07/30 04:22:50;;;;;;;;;;;;;;;;;;10499567;28;19929;-65
2022/07/30 04:27:52;;;;;;;;;;;;;;;;;;10499252;28;19928;-65
2022/07/30 04:33:04;;;;;;;;;;;;;;;;;;10498334;28;19925;-64
2022/07/30 04:38:09;;;;;;;;;;;;;;;;;;10498942;28;19924;-65
2022/07/30 04:43:11;;;;;;;;;;;;;;;;;;10498857;28;19932;-65
2022/07/30 04:48:13;;;;;;;;;;;;;;;;;;10498220;28;20295;-65
2022/07/30 04:53:15;;;;;;;;;;;;;;;;;;10498581;28;19929;-65
2022/07/30 04:58:17;;;;;;;;;;;;;;;;;;10498046;28;19924;-65
2022/07/30 05:03:19;;;;;;;;;;;;;;;;;;10498828;28;19924;-65
2022/07/30 05:08:21;;;;;;;;;;;;;;;;;;10498196;28;19928;-65
2022/07/30 05:13:23;;;;;;;;;;;;;;;;;;10498271;28;19925;-65
2022/07/30 05:18:35;;;;;;;;;;;;;;;;;;10498372;28;20007;-65
2022/07/30 05:23:37;;;;;;;;;;;;;;;;;;10498256;28;19925;-65
2022/07/30 05:28:39;;;;;;;;;;;;;;;;;;10499093;28;19924;-64
2022/07/30 05:33:41;;;;;;;;;;;;;;;;;;10505334;28;19925;-64
2022/07/30 05:38:44;;;;;;;;;;;;;;;;;;10505689;28;19974;-65
2022/07/30 05:43:46;;;;;;;;;;;;;;;;;;10505251;28;19925;-65
2022/07/30 05:48:48;;;;;;;;;;;;;;;;;;10504861;28;19925;-65
2022/07/30 05:53:50;;;;;;;;;;;;;;;;;;10505060;28;19932;-65
2022/07/30 05:59:16;;;;;;;;;;;;;;;;;;10505417;28;19913;-65
2022/07/30 06:04:18;;;;;;;;;;;;;;;;;;10505010;28;19931;-64
2022/07/30 06:09:20;;;;;;;;;;;;;;;;;;10503817;28;20321;-64
2022/07/30 06:14:23;;;;;;;;;;;;;;;;;;10503799;28;20350;-65
2022/07/30 06:19:25;;;;;;;;;;;;;;;;;;10504486;28;19924;-65
2022/07/30 06:24:27;;;;;;;;;;;;;;;;;;10503926;28;19963;-65
2022/07/30 06:29:29;;;;;;;;;;;;;;;;;;10504040;28;19936;-65
2022/07/30 06:34:31;;;;;;;;;;;;;;;;;;10503656;28;19924;-65
2022/07/30 06:39:34;;;;;;;;;;;;;;;;;;10502207;28;20264;-64
2022/07/30 06:44:56;;;;;;;;;;;;;;;;;;10503342;28;19924;-64
2022/07/30 06:49:58;;;;;;;;;;;;;;;;;;10502897;28;19932;-64
2022/07/30 06:55:00;;;;;;;;;;;;;;;;;;10502804;28;19932;-64
2022/07/30 07:00:02;;;;;;;;;;;;;;;;;;10502366;28;19929;-64
2022/07/30 07:05:04;;;;;;;;;;;;;;;;;;10501911;28;19931;-64
2022/07/30 07:10:06;;;;;;;;;;;;;;;;;;10501683;28;20302;-65
2022/07/30 07:15:08;;;;;;;;;;;;;;;;;;10501793;28;19932;-65
2022/07/30 07:20:10;;;;;;;;;;;;;;;;;;10501292;28;19925;-65
2022/07/30 07:25:12;;;;;;;;;;;;;;;;;;10500510;28;20391;-66
2022/07/30 07:30:14;;;;;;;;;;;;;;;;;;10501566;28;19928;-65
2022/07/30 07:35:17;;;;;;;;;;;;;;;;;;10498161;28;19931;-65
2022/07/30 07:40:19;;;;;;;;;;;;;;;;;;10500886;28;19931;-65
2022/07/30 07:45:21;;;;;;;;;;;;;;;;;;10499944;28;19925;-65
2022/07/30 07:50:23;;;;;;;;;;;;;;;;;;10500458;28;19978;-65
2022/07/30 07:55:25;;;;;;;;;;;;;;;;;;10499815;28;19931;-65
2022/07/30 08:00:28;;;;;;;;;;;;;;;;;;10500360;28;19930;-66
2022/07/30 08:05:30;;;;;;;;;;;;;;;;;;10500007;28;19931;-65
2022/07/30 08:10:52;;;;;;;;;;;;;;;;;;10494171;28;19928;-66
2022/07/30 08:15:54;;;;;;;;;;;;;;;;;;10501496;28;19935;-66
2022/07/30 08:20:56;;;;;;;;;;;;;;;;;;10519811;28;19935;-65
2022/07/30 08:25:58;;;;;;;;;;;;;;;;;;10498575;28;20290;-65
2022/07/30 08:31:00;;;;;;;;;;;;;;;;;;10499312;28;19925;-66
2022/07/30 08:36:03;;;;;;;;;;;;;;;;;;10499287;28;20010;-66
2022/07/30 08:41:10;;;;;;;;;;;;;;;;;;10499181;28;19931;-66
2022/07/30 08:46:12;;;;;;;;;;;;;;;;;;10497926;28;19970;-66
2022/07/30 08:51:15;;;;;;;;;;;;;;;;;;10480532;28;19925;-64
2022/07/30 08:56:17;;;;;;;;;;;;;;;;;;10497406;28;20293;-65
2022/07/30 09:01:19;;;;;;;;;;;;;;;;;;10497864;28;20299;-64
2022/07/30 09:06:21;;;;;;;;;;;;;;;;;;10509560;28;19924;-64
2022/07/30 09:11:23;;;;;;;;;;;;;;;;;;10510029;28;19928;-64
2022/07/30 09:16:25;;;;;;;;;;;;;;;;;;10524647;28;19944;-64
2022/07/30 09:21:28;;;;;;;;;;;;;;;;;;10511474;28;20386;-65
2022/07/30 09:26:31;;;;;;;;;;;;;;;;;;10511285;28;19931;-65
2022/07/30 09:31:33;;;;;;;;;;;;;;;;;;10511267;28;19929;-65
2022/07/30 09:36:35;;;;;;;;;;;;;;;;;;10511799;28;19924;-65
2022/07/30 09:41:40;;;;;;;;;;;;;;;;;;10511111;28;20375;-65
2022/07/30 09:46:43;;;;;;;;;;;;;;;;;;10510465;28;20372;-65
2022/07/30 09:51:45;;;;;;;;;;;;;;;;;;10511043;28;19924;-65
2022/07/30 09:56:57;;;;;;;;;;;;;;;;;;10509384;28;19935;-65
2022/07/30 10:02:02;;;;;;;;;;;;;;;;;;10510159;28;19924;-65
2022/07/30 10:07:06;;;;;;;;;;;;;;;;;;10510528;28;20375;-65
2022/07/30 10:12:09;;;;;;;;;;;;;;;;;;10493472;28;19924;-65
2022/07/30 10:17:12;;;;;;;;;;;;;;;;;;10505215;28;20012;-66
2022/07/30 10:22:14;;;;;;;;;;;;;;;;;;10504415;28;19935;-65
2022/07/30 10:27:18;;;;;;;;;;;;;;;;;;10504111;28;19932;-65
2022/07/30 10:32:20;;;;;;;;;;;;;;;;;;10485712;28;20291;-65
2022/07/30 10:37:34;;;;;;;;;;;;;;;;;;10503887;28;19931;-65
2022/07/30 10:42:36;;;;;;;;;;;;;;;;;;10502050;28;20268;-65
2022/07/30 10:47:38;;;;;;;;;;;;;;;;;;10500299;28;20355;-65
2022/07/30 10:52:49;;;;;;;;;;;;;;;;;;10503207;28;19936;-65
2022/07/30 10:57:51;;;;;;;;;;;;;;;;;;10503066;28;19928;-64
2022/07/30 11:02:53;;;;;;;;;;;;;;;;;;10502792;28;19947;-65
2022/07/30 11:07:55;;;;;;;;;;;;;;;;;;10502506;28;19925;-65
2022/07/30 11:12:57;;;;;;;;;;;;;;;;;;10501718;28;20360;-65
2022/07/30 11:17:59;;;;;;;;;;;;;;;;;;10502214;28;19925;-67
2022/07/30 11:23:01;;;;;;;;;;;;;;;;;;10502005;28;19924;-66
2022/07/30 11:28:04;;;;;;;;;;;;;;;;;;10500749;28;19928;-65
2022/07/30 11:33:06;;;;;;;;;;;;;;;;;;10483191;28;19974;-65
2022/07/30 11:38:08;;;;;;;;;;;;;;;;;;10500254;28;19932;-65
2022/07/30 11:43:10;;;;;;;;;;;;;;;;;;10501662;28;19925;-64
2022/07/30 11:48:12;;;;;;;;;;;;;;;;;;10499806;28;19924;-65
2022/07/30 11:53:14;;;;;;;;;;;;;;;;;;10500731;28;19929;-65
2022/07/30 11:58:16;;;;;;;;;;;;;;;;;;10500520;28;19925;-69
2022/07/30 12:03:18;;;;;;;;;;;;;;;;;;10499673;28;20282;-69
2022/07/30 12:08:21;;;;;;;;;;;;;;;;;;10499338;28;19936;-66
2022/07/30 12:13:36;;;;;;;;;;;;;;;;;;10499043;28;19974;-66
2022/07/30 12:18:45;;;;;;;;;;;;;;;;;;10499774;28;19925;-66
2022/07/30 12:23:47;;;;;;;;;;;;;;;;;;10499579;28;19924;-66
2022/07/30 12:28:53;;;;;;;;;;;;;;;;;;10499395;28;19925;-66
2022/07/30 12:33:56;;;;;;;;;;;;;;;;;;10498720;28;19924;-66
2022/07/30 12:38:59;;;;;;;;;;;;;;;;;;10498533;28;19970;-65
2022/07/30 12:44:01;;;;;;;;;;;;;;;;;;10498182;28;20249;-66
2022/07/30 12:49:03;;;;;;;;;;;;;;;;;;10498617;28;19924;-66
2022/07/30 12:54:08;;;;;;;;;;;;;;;;;;10498102;28;20378;-66
2022/07/30 12:59:10;;;;;;;;;;;;;;;;;;10498621;28;19925;-66
2022/07/30 13:04:13;;;;;;;;;;;;;;;;;;10498506;28;19924;-66
2022/07/30 13:09:15;;;;;;;;;;;;;;;;;;10497785;28;20287;-66
2022/07/30 13:14:17;;;;;;;;;;;;;;;;;;10497832;28;19932;-66
2022/07/30 13:19:19;;;;;;;;;;;;;;;;;;10498369;28;19924;-66
2022/07/30 13:24:21;;;;;;;;;;;;;;;;;;10497524;28;19931;-65
2022/07/30 13:29:24;;;;;;;;;;;;;;;;;;10498138;28;19928;-66
2022/07/30 13:34:26;;;;;;;;;;;;;;;;;;10497967;28;19931;-66
2022/07/30 13:39:28;;;;;;;;;;;;;;;;;;10498079;28;19931;-66
2022/07/30 13:44:30;;;;;;;;;;;;;;;;;;10497486;28;19932;-66
2022/07/30 13:49:34;;;;;;;;;;;;;;;;;;10491226;28;19925;-66
2022/07/30 13:54:36;;;;;;;;;;;;;;;;;;10507797;28;19932;-66
2022/07/30 13:59:38;;;;;;;;;;;;;;;;;;10546818;28;19924;-65
2022/07/30 14:04:40;;;;;;;;;;;;;;;;;;10547088;28;19939;-65
2022/07/30 14:09:43;;;;;;;;;;;;;;;;;;10514080;28;20298;-65
2022/07/30 14:14:45;;;;;;;;;;;;;;;;;;10514935;28;19931;-65
2022/07/30 14:19:49;;;;;;;;;;;;;;;;;;10513254;28;19930;-65
2022/07/30 14:24:52;;;;;;;;;;;;;;;;;;10503932;28;19928;-66
2022/07/30 14:29:54;;;;;;;;;;;;;;;;;;10504166;28;19928;-66
2022/07/30 14:34:56;;;;;;;;;;;;;;;;;;10503694;28;20307;-66
2022/07/30 14:39:58;;;;;;;;;;;;;;;;;;10502909;28;19924;-65
2022/07/30 14:45:00;;;;;;;;;;;;;;;;;;10502932;28;19924;-66
2022/07/30 14:50:02;;;;;;;;;;;;;;;;;;10502754;28;19948;-65
2022/07/30 14:55:04;;;;;;;;;;;;;;;;;;10502261;28;19928;-66
2022/07/30 15:00:09;;;;;;;;;;;;;;;;;;10510238;22;20048;-65
2022/07/30 15:05:11;;;;;;;;;;;;;;;;;;10460415;28;20379;-66
2022/07/30 15:10:14;;;;;;;;;;;;;;;;;;10487749;28;20386;-65
2022/07/30 15:15:16;;;;;;;;;;;;;;;;;;10501834;28;19924;-65
2022/07/30 15:20:18;;;;;;;;;;;;;;;;;;10501403;28;19925;-66
2022/07/30 15:25:22;;;;;;;;;;;;;;;;;;10501216;28;19924;-66
2022/07/30 15:30:24;;;;;;;;;;;;;;;;;;10500625;28;20402;-66
2022/07/30 15:35:26;;;;;;;;;;;;;;;;;;10500957;28;20264;-66
2022/07/30 15:40:28;;;;;;;;;;;;;;;;;;10500703;28;20367;-65
2022/07/30 15:45:31;;;;;;;;;;;;;;;;;;10482985;28;19932;-66
2022/07/30 15:50:52;;;;;;;;;;;;;;;;;;10500459;28;19928;-66
2022/07/30 15:55:54;;;;;;;;;;;;;;;;;;10500749;28;19925;-66
2022/07/30 16:00:56;;;;;;;;;;;;;;;;;;10522911;28;19998;-66
2022/07/30 16:05:58;;;;;;;;;;;;;;;;;;10542230;28;19938;-66
2022/07/30 16:11:03;;;;;;;;;;;;;;;;;;10540277;28;19924;-66
2022/07/30 16:16:05;;;;;;;;;;;;;;;;;;10540942;28;19931;-66
2022/07/30 16:21:07;;;;;;;;;;;;;;;;;;10515313;28;19924;-65
2022/07/30 16:26:09;;;;;;;;;;;;;;;;;;10498945;28;19925;-66
2022/07/30 16:31:11;;;;;;;;;;;;;;;;;;10498545;28;19932;-66
2022/07/30 16:36:13;;;;;;;;;;;;;;;;;;10498605;28;20310;-65
2022/07/30 16:41:15;;;;;;;;;;;;;;;;;;10500882;28;19928;-66
2022/07/30 16:46:17;;;;;;;;;;;;;;;;;;10498633;28;20367;-66
2022/07/30 16:51:19;;;;;;;;;;;;;;;;;;10522750;28;19924;-66
2022/07/30 16:56:22;;;;;;;;;;;;;;;;;;10493575;28;20291;-66
2022/07/30 17:01:24;;;;;;;;;;;;;;;;;;10456158;28;19924;-66
2022/07/30 17:06:26;;;;;;;;;;;;;;;;;;10482397;28;19929;-67
2022/07/30 17:11:30;;;;;;;;;;;;;;;;;;10500592;28;19924;-68
2022/07/30 17:16:48;;;;;;;;;;;;;;;;;;10498454;28;19925;-68
2022/07/30 17:21:50;;;;;;;;;;;;;;;;;;10517197;28;19931;-67
2022/07/30 17:26:52;;;;;;;;;;;;;;;;;;10539823;28;19931;-65
2022/07/30 17:31:54;;;;;;;;;;;;;;;;;;10536907;28;19930;-66
2022/07/30 17:36:57;;;;;;;;;;;;;;;;;;10534429;28;20371;-67
2022/07/30 17:41:59;;;;;;;;;;;;;;;;;;10547846;28;19931;-68
2022/07/30 17:47:02;;;;;;;;;;;;;;;;;;10547729;28;19970;-68
2022/07/30 17:52:04;;;;;;;;;;;;;;;;;;10546827;28;19924;-68
2022/07/30 17:57:07;;;;;;;;;;;;;;;;;;10510154;28;20023;-68
2022/07/30 18:02:09;;;;;;;;;;;;;;;;;;10489155;28;19932;-67
2022/07/30 18:07:11;;;;;;;;;;;;;;;;;;10463489;28;20284;-68
2022/07/30 18:12:13;;;;;;;;;;;;;;;;;;10488747;28;19995;-68
2022/07/30 18:17:15;;;;;;;;;;;;;;;;;;10481738;28;19934;-68
2022/07/30 18:22:17;;;;;;;;;;;;;;;;;;10465831;28;19932;-68
2022/07/30 18:27:30;;;;;;;;;;;;;;;;;;10462014;28;19986;-68
2022/07/30 18:32:32;;;;;;;;;;;;;;;;;;10463052;28;19988;-68
2022/07/30 18:37:34;;;;;;;;;;;;;;;;;;10461415;28;19932;-68
2022/07/30 18:42:40;;;;;;;;;;;;;;;;;;10481740;28;20003;-68
2022/07/30 18:47:42;;;;;;;;;;;;;;;;;;10501816;28;19925;-68
2022/07/30 18:52:46;;;;;;;;;;;;;;;;;;10500415;28;20165;-66
2022/07/30 18:57:48;;;;;;;;;;;;;;;;;;10473345;28;20376;-66
2022/07/30 19:02:53;;;;;;;;;;;;;;;;;;10499723;28;20367;-66
2022/07/30 19:07:55;;;;;;;;;;;;;;;;;;10500375;28;19931;-66
2022/07/30 19:12:59;;;;;;;;;;;;;;;;;;10498929;28;20015;-66
2022/07/30 19:18:01;;;;;;;;;;;;;;;;;;10474513;28;19925;-66
2022/07/30 19:23:03;;;;;;;;;;;;;;;;;;10486530;28;19931;-66
2022/07/30 19:28:05;;;;;;;;;;;;;;;;;;10501872;28;19924;-66
2022/07/30 19:33:08;;;;;;;;;;;;;;;;;;10498323;28;19931;-66
2022/07/30 19:38:15;;;;;;;;;;;;;;;;;;10501195;28;19924;-66
2022/07/30 19:43:24;;;;;;;;;;;;;;;;;;10456822;28;19978;-66
2022/07/30 19:48:28;;;;;;;;;;;;;;;;;;10490554;28;19936;-66
2022/07/30 19:53:32;;;;;;;;;;;;;;;;;;10493402;28;19925;-66
2022/07/30 19:58:35;;;;;;;;;;;;;;;;;;10477551;28;20497;-66
2022/07/30 20:03:38;;;;;;;;;;;;;;;;;;10540332;28;20029;-66
2022/07/30 20:08:40;;;;;;;;;;;;;;;;;;10542148;28;20145;-67
2022/07/30 20:13:42;;;;;;;;;;;;;;;;;;10536435;28;19930;-68
2022/07/30 20:18:46;;;;;;;;;;;;;;;;;;10539771;28;19928;-68
2022/07/30 20:23:48;;;;;;;;;;;;;;;;;;10539919;28;19930;-68
2022/07/30 20:28:51;;;;;;;;;;;;;;;;;;10541385;28;19924;-68
2022/07/30 20:33:53;;;;;;;;;;;;;;;;;;10519194;28;20401;-68
2022/07/30 20:38:55;;;;;;;;;;;;;;;;;;10500266;28;19931;-68
2022/07/30 20:44:00;;;;;;;;;;;;;;;;;;10526033;28;19924;-68
2022/07/30 20:49:03;;;;;;;;;;;;;;;;;;10503842;28;19932;-68
2022/07/30 20:54:05;;;;;;;;;;;;;;;;;;10509716;28;19931;-67
2022/07/30 20:59:07;;;;;;;;;;;;;;;;;;10539764;28;19928;-68
2022/07/30 21:04:09;;;;;;;;;;;;;;;;;;10538646;28;19924;-68
2022/07/30 21:09:11;;;;;;;;;;;;;;;;;;10524834;28;19925;-68
2022/07/30 21:14:13;;;;;;;;;;;;;;;;;;10528516;28;19938;-68
2022/07/30 21:19:18;;;;;;;;;;;;;;;;;;10538680;28;20023;-68
2022/07/30 21:24:21;;;;;;;;;;;;;;;;;;10519765;28;19924;-68
2022/07/30 21:29:24;;;;;;;;;;;;;;;;;;10539918;28;19924;-68
2022/07/30 21:34:26;;;;;;;;;;;;;;;;;;10539167;28;19928;-68
2022/07/30 21:39:31;;;;;;;;;;;;;;;;;;10539347;28;19924;-68
2022/07/30 21:44:34;;;;;;;;;;;;;;;;;;10536970;28;19931;-68
2022/07/30 21:49:36;;;;;;;;;;;;;;;;;;10539575;28;19931;-68
2022/07/30 21:54:38;;;;;;;;;;;;;;;;;;10539097;28;19982;-68
2022/07/30 21:59:49;;;;;;;;;;;;;;;;;;10538588;28;20370;-68
2022/07/30 22:04:52;;;;;;;;;;;;;;;;;;10536927;28;19928;-67
2022/07/30 22:09:54;;;;;;;;;;;;;;;;;;10538855;28;19931;-68
2022/07/30 22:14:56;;;;;;;;;;;;;;;;;;10545729;28;20391;-68
2022/07/30 22:19:58;;;;;;;;;;;;;;;;;;10545900;28;20381;-68
2022/07/30 22:25:00;;;;;;;;;;;;;;;;;;10544318;28;19931;-68
2022/07/30 22:30:02;;;;;;;;;;;;;;;;;;10527889;28;19924;-68
2022/07/30 22:35:04;;;;;;;;;;;;;;;;;;10545960;28;19931;-68
2022/07/30 22:40:06;;;;;;;;;;;;;;;;;;10529413;28;19928;-68
2022/07/30 22:45:09;;;;;;;;;;;;;;;;;;10544663;28;19931;-68
2022/07/30 22:50:11;;;;;;;;;;;;;;;;;;10519070;28;19924;-68
2022/07/30 22:55:13;;;;;;;;;;;;;;;;;;10503258;28;19928;-68
2022/07/30 23:00:16;;;;;;;;;;;;;;;;;;10502962;28;19924;-68
2022/07/30 23:05:28;;;;;;;;;;;;;;;;;;10489751;28;19928;-67
2022/07/30 23:10:30;;;;;;;;;;;;;;;;;;10543545;28;19924;-68
2022/07/30 23:15:32;;;;;;;;;;;;;;;;;;10543785;28;20279;-67
2022/07/30 23:20:34;;;;;;;;;;;;;;;;;;10541709;28;20272;-68
2022/07/30 23:25:37;;;;;;;;;;;;;;;;;;10543416;28;19928;-68
2022/07/30 23:30:40;;;;;;;;;;;;;;;;;;10522179;28;19932;-68
2022/07/30 23:35:42;;;;;;;;;;;;;;;;;;10501051;28;19947;-68
2022/07/30 23:40:45;;;;;;;;;;;;;;;;;;10521926;28;19931;-68
2022/07/30 23:45:47;;;;;;;;;;;;;;;;;;10543226;28;19928;-68
2022/07/30 23:50:49;;;;;;;;;;;;;;;;;;10516565;28;19925;-68
2022/07/30 23:55:51;;;;;;;;;;;;;;;;;;10500158;28;19951;-68
